McCurtain, Oklahoma
Current Conditions -  °F | °C
As of 6:55 AM on Tuesday 21 Oct 2014 (Local Time) from KGZL Reporting Station
Haze Haze  
Wind Chill: 12°   Ceiling: 4500
Heat Index: 12°   Visibility: 1.2mi
Dew Point: 11°   Wind: 0mph
Humidity: 94%   Direction: NA
Pressure: 30.1"   Gusts: NA
Location:  35.15°N, 94.97°W
Report Text: KGZL 211155Z AUTO 00000KT 1 1/4SM BR SCT002 SCT037 OVC045 12/11 A3010 RMK AO2
Loading
Personal Weather Stations






























Interactive Weather Map
Tropical Storm Tracking
New forecast layout! Learn more

10-Day Weather Forecast

Advertisements
Track Severe Weather on mobile